首页
METAR-TAF:

METAR-TAF

机场 :

亚历山大, 明尼蘇達州, 美国

纬度: 45-52-07N, 经度: 095-23-39W, 海拔: 434米

当前天气观测

该预报发布于1小时和1分钟前的20:53 UTC
静风
温度 26°C
湿度 37%
气压 1018 hPa
能見度: 16.1公里
天空无云

METAR: KAXN 142053Z AUTO 00000KT 10SM CLR 26/10 A3006 RMK AO2 SLP178 T02610100 58010

时间: 16:54 (21:54 UTC)

预报

该预报发布于4小时和20分钟前的17:34 UTC
预报有效从14日的 18点(UTC)到 15日的 18点(UTC)
风速4节,风向西北
能見度: 10公里
天空无云
从 14日的 2200点(UTC)
风速5节,风向西南
能見度: 10公里
散云层高于25000英尺
从 15日的 0100点(UTC)
风速6节,风向南转南东
能見度: 10公里
散云层高于15000英尺
从 15日的 1500点(UTC)
风速15节,风向南转南东,有时为25节阵风
能見度: 10公里
阴天层高于5000英尺
几率 30%
从 15日的 15点(UTC)到 15日的 18点(UTC)
能見度: 9.7公里
阴天层高于5000英尺
小阵雨,

TAF: KAXN 141734Z 1418/1518 31004KT P6SM SKC FM142200 22005KT P6SM SCT250 FM150100 16006KT P6SM SCT150 FM151500 16015G25KT P6SM OVC050 PROB30 1515/1518 6SM -SHRA OVC050

超过4000个机场的气象观测和天气预报(METAR&TAF报告)。

可查询的气象台以黄色和红色小点在地图上表示。

将鼠标移到小点上方,可查看气象台名称。

然后点击查看天气观测和预报。

如需切换地图:点击带黑十字的绿色按钮放大地图;点击带横线的绿色按钮缩小地图;或者点击绿色箭头查看邻近地区的地图。


METAR-TAF: